BAW9026 LKPR-LOWW
Flight info
| Callsign | BAW9026 |
|---|---|
| Flight time | 0h 48m |
| Altitude | 17000 |
| Route | VOZ4H/12 VOZ DCT LANUX LANUX7W |
| Aircraft | A20N/M-SDGHIJ1LRWXY/SB1 |
Departure
| Time | 2026-05-06 19:59 |
|---|---|
| Airport | Václav Havel Airport Prague (LKPR) |
Arrival
| Time | 2026-05-06 20:48 |
|---|---|
| Airport | Vienna International Airport (LOWW) |
| Time | Latitude | Longitude | Altitude | Speed | Heading |
|---|---|---|---|---|---|
| 2026-05-06 19:25 | 50.10649 | 14.26463 | 1172 ft | 0 kts | 216° |
| 2026-05-06 19:45 | 50.10662 | 14.26477 | 1171 ft | 2 kts | 215° |
| 2026-05-06 19:45 | 50.10676 | 14.26491 | 1172 ft | 2 kts | 213° |
| 2026-05-06 19:45 | 50.10690 | 14.26505 | 1173 ft | 2 kts | 211° |
| 2026-05-06 19:45 | 50.10704 | 14.26519 | 1172 ft | 2 kts | 216° |
| 2026-05-06 19:46 | 50.10717 | 14.26535 | 1174 ft | 2 kts | 216° |
| 2026-05-06 19:46 | 50.10721 | 14.26539 | 1171 ft | 0 kts | 216° |
| 2026-05-06 19:47 | 50.10720 | 14.26538 | 1171 ft | 1 kts | 216° |
| 2026-05-06 19:47 | 50.10721 | 14.26508 | 1174 ft | 0 kts | 300° |
| 2026-05-06 19:48 | 50.10756 | 14.26417 | 1174 ft | 19 kts | 301° |
| 2026-05-06 19:48 | 50.10812 | 14.26243 | 1172 ft | 19 kts | 295° |
| 2026-05-06 19:48 | 50.10883 | 14.26079 | 1174 ft | 5 kts | 334° |
| 2026-05-06 19:48 | 50.10894 | 14.26070 | 1174 ft | 4 kts | 334° |
| 2026-05-06 19:49 | 50.10919 | 14.26047 | 1173 ft | 5 kts | 326° |
| 2026-05-06 19:49 | 50.10949 | 14.25999 | 1174 ft | 8 kts | 304° |
| 2026-05-06 19:49 | 50.10959 | 14.25911 | 1176 ft | 9 kts | 261° |
| 2026-05-06 19:49 | 50.10910 | 14.25847 | 1173 ft | 11 kts | 215° |
| 2026-05-06 19:50 | 50.10840 | 14.25780 | 1171 ft | 13 kts | 211° |
| 2026-05-06 19:50 | 50.10765 | 14.25702 | 1174 ft | 13 kts | 214° |
| 2026-05-06 19:50 | 50.10680 | 14.25610 | 1174 ft | 16 kts | 216° |
| 2026-05-06 19:50 | 50.10636 | 14.25562 | 1172 ft | 2 kts | 214° |
| 2026-05-06 19:51 | 50.10634 | 14.25559 | 1171 ft | 0 kts | 215° |
| 2026-05-06 19:52 | 50.10633 | 14.25558 | 1171 ft | 1 kts | 215° |
| 2026-05-06 19:52 | 50.10605 | 14.25508 | 1172 ft | 10 kts | 243° |
| 2026-05-06 19:53 | 50.10585 | 14.25373 | 1175 ft | 15 kts | 259° |
| 2026-05-06 19:53 | 50.10573 | 14.25281 | 1174 ft | 0 kts | 255° |
| 2026-05-06 19:54 | 50.10568 | 14.25249 | 1176 ft | 6 kts | 256° |
| 2026-05-06 19:54 | 50.10552 | 14.25155 | 1174 ft | 11 kts | 251° |
| 2026-05-06 19:54 | 50.10517 | 14.25036 | 1173 ft | 12 kts | 243° |
| 2026-05-06 19:54 | 50.10506 | 14.25000 | 1173 ft | 4 kts | 245° |
| 2026-05-06 19:55 | 50.10487 | 14.24938 | 1172 ft | 8 kts | 245° |
| 2026-05-06 19:55 | 50.10458 | 14.24839 | 1173 ft | 12 kts | 245° |
| 2026-05-06 19:55 | 50.10419 | 14.24708 | 1173 ft | 15 kts | 245° |
| 2026-05-06 19:55 | 50.10378 | 14.24552 | 1175 ft | 16 kts | 252° |
| 2026-05-06 19:56 | 50.10355 | 14.24378 | 1176 ft | 18 kts | 268° |
| 2026-05-06 19:56 | 50.10401 | 14.24242 | 1174 ft | 10 kts | 355° |
| 2026-05-06 19:56 | 50.10434 | 14.24251 | 1172 ft | 2 kts | 13° |
| 2026-05-06 19:56 | 50.10486 | 14.24254 | 1173 ft | 12 kts | 13° |
| 2026-05-06 19:57 | 50.10509 | 14.24261 | 1173 ft | 4 kts | 12° |
| 2026-05-06 19:57 | 50.10543 | 14.24287 | 1174 ft | 7 kts | 25° |
| 2026-05-06 19:57 | 50.10588 | 14.24339 | 1173 ft | 9 kts | 43° |
| 2026-05-06 19:57 | 50.10645 | 14.24410 | 1175 ft | 12 kts | 36° |
| 2026-05-06 19:58 | 50.10705 | 14.24489 | 1176 ft | 11 kts | 38° |
| 2026-05-06 19:58 | 50.10746 | 14.24587 | 1175 ft | 9 kts | 72° |
| 2026-05-06 19:58 | 50.10741 | 14.24613 | 1176 ft | 9 kts | 109° |
| 2026-05-06 19:58 | 50.10655 | 14.24818 | 1176 ft | 46 kts | 125° |
| 2026-05-06 19:59 | 50.10320 | 14.25568 | 1173 ft | 112 kts | 127° |
| 2026-05-06 19:59 | 50.09739 | 14.26749 | 1338 ft | 142 kts | 131° |
| 2026-05-06 19:59 | 50.09131 | 14.27833 | 2017 ft | 135 kts | 130° |
| 2026-05-06 19:59 | 50.08549 | 14.28949 | 2447 ft | 153 kts | 125° |
| 2026-05-06 20:00 | 50.08155 | 14.29786 | 2771 ft | 165 kts | 123° |
| 2026-05-06 20:00 | 50.07724 | 14.30734 | 3134 ft | 178 kts | 125° |
| 2026-05-06 20:00 | 50.07092 | 14.32097 | 3639 ft | 194 kts | 125° |
| 2026-05-06 20:00 | 50.06320 | 14.33767 | 4174 ft | 214 kts | 126° |
| 2026-05-06 20:01 | 50.05396 | 14.35740 | 4702 ft | 238 kts | 127° |
| 2026-05-06 20:01 | 50.04380 | 14.37877 | 5293 ft | 260 kts | 128° |
| 2026-05-06 20:01 | 50.03276 | 14.40173 | 6128 ft | 272 kts | 129° |
| 2026-05-06 20:01 | 50.02122 | 14.42557 | 7142 ft | 277 kts | 130° |
| 2026-05-06 20:02 | 50.00948 | 14.44958 | 8160 ft | 282 kts | 130° |
| 2026-05-06 20:02 | 49.99675 | 14.47549 | 9254 ft | 287 kts | 132° |
| 2026-05-06 20:02 | 49.98376 | 14.49647 | 10139 ft | 289 kts | 144° |
| 2026-05-06 20:02 | 49.96641 | 14.51459 | 10650 ft | 307 kts | 155° |
| 2026-05-06 20:03 | 49.94667 | 14.53050 | 11061 ft | 329 kts | 156° |
| 2026-05-06 20:03 | 49.92611 | 14.54731 | 11879 ft | 336 kts | 155° |
| 2026-05-06 20:03 | 49.91218 | 14.55886 | 12514 ft | 339 kts | 155° |
| 2026-05-06 20:03 | 49.88414 | 14.58229 | 13724 ft | 345 kts | 154° |
| 2026-05-06 20:04 | 49.86265 | 14.60029 | 14560 ft | 349 kts | 155° |
| 2026-05-06 20:04 | 49.84164 | 14.61790 | 15289 ft | 353 kts | 155° |
| 2026-05-06 20:04 | 49.82701 | 14.63014 | 15662 ft | 357 kts | 155° |
| 2026-05-06 20:04 | 49.79828 | 14.65415 | 16482 ft | 359 kts | 155° |
| 2026-05-06 20:05 | 49.77619 | 14.67258 | 16698 ft | 360 kts | 156° |
| 2026-05-06 20:05 | 49.75431 | 14.69082 | 16751 ft | 360 kts | 156° |
| 2026-05-06 20:05 | 49.73214 | 14.70927 | 16754 ft | 360 kts | 156° |
| 2026-05-06 20:05 | 49.71009 | 14.72759 | 16750 ft | 360 kts | 156° |
| 2026-05-06 20:06 | 49.68817 | 14.74579 | 16751 ft | 360 kts | 156° |
| 2026-05-06 20:06 | 49.66593 | 14.76423 | 16749 ft | 360 kts | 156° |
| 2026-05-06 20:06 | 49.64384 | 14.78252 | 16768 ft | 361 kts | 156° |
| 2026-05-06 20:06 | 49.62190 | 14.80067 | 16757 ft | 361 kts | 156° |
| 2026-05-06 20:07 | 49.59978 | 14.81896 | 16746 ft | 361 kts | 156° |
| 2026-05-06 20:07 | 49.57765 | 14.83724 | 16757 ft | 361 kts | 156° |
| 2026-05-06 20:07 | 49.55556 | 14.85547 | 16763 ft | 361 kts | 156° |
| 2026-05-06 20:07 | 49.53362 | 14.87423 | 16744 ft | 363 kts | 152° |
| 2026-05-06 20:08 | 49.51296 | 14.89689 | 16757 ft | 366 kts | 147° |
| 2026-05-06 20:08 | 49.49282 | 14.92064 | 16756 ft | 366 kts | 147° |
| 2026-05-06 20:08 | 49.47252 | 14.94445 | 16755 ft | 366 kts | 147° |
| 2026-05-06 20:08 | 49.45890 | 14.96038 | 16755 ft | 366 kts | 147° |
| 2026-05-06 20:09 | 49.43858 | 14.98407 | 16761 ft | 366 kts | 147° |
| 2026-05-06 20:09 | 49.41831 | 15.00765 | 16756 ft | 366 kts | 147° |
| 2026-05-06 20:09 | 49.39806 | 15.03117 | 16756 ft | 366 kts | 147° |
| 2026-05-06 20:09 | 49.37747 | 15.05505 | 16760 ft | 366 kts | 148° |
| 2026-05-06 20:10 | 49.35739 | 15.07833 | 16765 ft | 366 kts | 148° |
| 2026-05-06 20:10 | 49.33713 | 15.10180 | 16761 ft | 366 kts | 148° |
| 2026-05-06 20:10 | 49.31652 | 15.12566 | 16757 ft | 366 kts | 148° |
| 2026-05-06 20:10 | 49.30967 | 15.13358 | 16758 ft | 366 kts | 148° |
| 2026-05-06 20:11 | 49.28995 | 15.15636 | 16755 ft | 366 kts | 148° |
| 2026-05-06 20:11 | 49.26945 | 15.18003 | 16690 ft | 363 kts | 148° |
| 2026-05-06 20:12 | 49.24955 | 15.20298 | 16363 ft | 361 kts | 147° |
| 2026-05-06 20:12 | 49.22926 | 15.22635 | 15824 ft | 359 kts | 147° |
| 2026-05-06 20:12 | 49.20938 | 15.24923 | 15253 ft | 357 kts | 147° |
| 2026-05-06 20:12 | 49.18968 | 15.27187 | 14893 ft | 352 kts | 147° |
| 2026-05-06 20:13 | 49.16996 | 15.29451 | 14776 ft | 356 kts | 146° |
| 2026-05-06 20:13 | 49.15017 | 15.31719 | 14742 ft | 356 kts | 146° |
| 2026-05-06 20:13 | 49.13039 | 15.33988 | 14751 ft | 356 kts | 146° |
| 2026-05-06 20:13 | 49.11061 | 15.36253 | 14749 ft | 356 kts | 146° |
| 2026-05-06 20:14 | 49.09087 | 15.38511 | 14753 ft | 356 kts | 146° |
| 2026-05-06 20:14 | 49.07079 | 15.40805 | 14751 ft | 356 kts | 146° |
| 2026-05-06 20:14 | 49.05094 | 15.43071 | 14746 ft | 356 kts | 146° |
| 2026-05-06 20:14 | 49.03109 | 15.45336 | 14744 ft | 355 kts | 146° |
| 2026-05-06 20:15 | 49.01133 | 15.47587 | 14750 ft | 355 kts | 146° |
| 2026-05-06 20:15 | 48.99132 | 15.49864 | 14750 ft | 355 kts | 147° |
| 2026-05-06 20:15 | 48.97144 | 15.52124 | 14748 ft | 355 kts | 147° |
| 2026-05-06 20:15 | 48.95167 | 15.54369 | 14751 ft | 355 kts | 147° |
| 2026-05-06 20:16 | 48.93160 | 15.56647 | 14713 ft | 354 kts | 147° |
| 2026-05-06 20:16 | 48.91191 | 15.58879 | 14425 ft | 353 kts | 147° |
| 2026-05-06 20:16 | 48.89230 | 15.61099 | 13987 ft | 350 kts | 146° |
| 2026-05-06 20:16 | 48.87289 | 15.63324 | 13436 ft | 349 kts | 145° |
| 2026-05-06 20:17 | 48.85388 | 15.65604 | 12944 ft | 345 kts | 144° |
| 2026-05-06 20:17 | 48.83523 | 15.67872 | 12779 ft | 346 kts | 144° |
| 2026-05-06 20:17 | 48.81608 | 15.70191 | 12746 ft | 347 kts | 144° |
| 2026-05-06 20:17 | 48.79672 | 15.72333 | 12745 ft | 343 kts | 155° |
| 2026-05-06 20:18 | 48.77454 | 15.73406 | 12752 ft | 338 kts | 174° |
| 2026-05-06 20:18 | 48.75104 | 15.73869 | 12744 ft | 338 kts | 175° |
| 2026-05-06 20:18 | 48.72758 | 15.74317 | 12747 ft | 338 kts | 175° |
| 2026-05-06 20:18 | 48.70431 | 15.74760 | 12744 ft | 339 kts | 175° |
| 2026-05-06 20:19 | 48.68063 | 15.75209 | 12745 ft | 339 kts | 175° |
| 2026-05-06 20:19 | 48.65729 | 15.75654 | 12747 ft | 332 kts | 175° |
| 2026-05-06 20:19 | 48.63495 | 15.76087 | 12745 ft | 314 kts | 175° |
| 2026-05-06 20:19 | 48.61390 | 15.76503 | 12748 ft | 297 kts | 175° |
| 2026-05-06 20:20 | 48.59415 | 15.76902 | 12745 ft | 280 kts | 175° |
| 2026-05-06 20:20 | 48.57543 | 15.77290 | 12745 ft | 265 kts | 175° |
| 2026-05-06 20:20 | 48.55716 | 15.77672 | 12752 ft | 269 kts | 175° |
| 2026-05-06 20:20 | 48.53915 | 15.78047 | 12746 ft | 269 kts | 175° |
| 2026-05-06 20:21 | 48.52046 | 15.78435 | 12603 ft | 266 kts | 175° |
| 2026-05-06 20:21 | 48.50180 | 15.78824 | 12273 ft | 266 kts | 175° |
| 2026-05-06 20:21 | 48.48350 | 15.79205 | 11902 ft | 265 kts | 175° |
| 2026-05-06 20:21 | 48.46564 | 15.79580 | 11572 ft | 263 kts | 175° |
| 2026-05-06 20:22 | 48.44714 | 15.79965 | 11204 ft | 262 kts | 175° |
| 2026-05-06 20:22 | 48.42952 | 15.80331 | 10850 ft | 261 kts | 175° |
| 2026-05-06 20:22 | 48.41340 | 15.80664 | 10549 ft | 259 kts | 175° |
| 2026-05-06 20:22 | 48.39558 | 15.81035 | 10203 ft | 258 kts | 175° |
| 2026-05-06 20:23 | 48.37829 | 15.81664 | 10034 ft | 260 kts | 156° |
| 2026-05-06 20:23 | 48.36425 | 15.83446 | 9988 ft | 272 kts | 128° |
| 2026-05-06 20:23 | 48.35708 | 15.86095 | 9976 ft | 279 kts | 100° |
| 2026-05-06 20:23 | 48.35863 | 15.88973 | 9985 ft | 285 kts | 72° |
| 2026-05-06 20:24 | 48.36897 | 15.91590 | 9984 ft | 288 kts | 47° |
| 2026-05-06 20:24 | 48.38333 | 15.93667 | 9980 ft | 289 kts | 41° |
| 2026-05-06 20:24 | 48.39817 | 15.95702 | 9946 ft | 287 kts | 43° |
| 2026-05-06 20:24 | 48.41225 | 15.97812 | 9654 ft | 285 kts | 47° |
| 2026-05-06 20:25 | 48.42563 | 16.00008 | 9185 ft | 285 kts | 49° |
| 2026-05-06 20:25 | 48.43862 | 16.02262 | 8740 ft | 283 kts | 50° |
| 2026-05-06 20:25 | 48.45122 | 16.04517 | 8284 ft | 281 kts | 53° |
| 2026-05-06 20:25 | 48.45910 | 16.07137 | 8035 ft | 274 kts | 83° |
| 2026-05-06 20:26 | 48.45788 | 16.09927 | 8090 ft | 271 kts | 112° |
| 2026-05-06 20:26 | 48.44829 | 16.12282 | 8220 ft | 263 kts | 141° |
| 2026-05-06 20:26 | 48.43286 | 16.13694 | 8354 ft | 257 kts | 162° |
| 2026-05-06 20:26 | 48.41618 | 16.14623 | 8480 ft | 256 kts | 165° |
| 2026-05-06 20:27 | 48.39932 | 16.15524 | 8499 ft | 256 kts | 163° |
| 2026-05-06 20:27 | 48.38275 | 16.16484 | 8388 ft | 256 kts | 162° |
| 2026-05-06 20:27 | 48.36625 | 16.17511 | 8319 ft | 258 kts | 160° |
| 2026-05-06 20:27 | 48.34996 | 16.18566 | 8288 ft | 258 kts | 160° |
| 2026-05-06 20:28 | 48.33344 | 16.19654 | 8254 ft | 258 kts | 160° |
| 2026-05-06 20:28 | 48.31719 | 16.20813 | 8214 ft | 261 kts | 149° |
| 2026-05-06 20:28 | 48.30569 | 16.22541 | 8050 ft | 265 kts | 125° |
| 2026-05-06 20:28 | 48.29977 | 16.24888 | 7663 ft | 271 kts | 99° |
| 2026-05-06 20:29 | 48.30090 | 16.27486 | 7249 ft | 274 kts | 77° |
| 2026-05-06 20:29 | 48.30632 | 16.30034 | 6855 ft | 272 kts | 70° |
| 2026-05-06 20:29 | 48.31308 | 16.32462 | 6442 ft | 271 kts | 57° |
| 2026-05-06 20:29 | 48.32588 | 16.34393 | 6098 ft | 262 kts | 26° |
| 2026-05-06 20:30 | 48.34275 | 16.35129 | 5998 ft | 243 kts | 357° |
| 2026-05-06 20:30 | 48.37420 | 16.34010 | 5989 ft | 233 kts | 340° |
| 2026-05-06 20:30 | 48.38482 | 16.33556 | 5993 ft | 233 kts | 340° |
| 2026-05-06 20:31 | 48.40582 | 16.32817 | 5982 ft | 235 kts | 345° |
| 2026-05-06 20:31 | 48.42189 | 16.32350 | 5983 ft | 236 kts | 345° |
| 2026-05-06 20:31 | 48.43796 | 16.31874 | 5979 ft | 236 kts | 345° |
| 2026-05-06 20:31 | 48.45433 | 16.31388 | 5984 ft | 237 kts | 345° |
| 2026-05-06 20:32 | 48.47053 | 16.30910 | 5979 ft | 237 kts | 345° |
| 2026-05-06 20:32 | 48.48653 | 16.30439 | 5979 ft | 237 kts | 345° |
| 2026-05-06 20:32 | 48.50265 | 16.29965 | 5975 ft | 236 kts | 345° |
| 2026-05-06 20:32 | 48.51882 | 16.29488 | 5978 ft | 238 kts | 345° |
| 2026-05-06 20:33 | 48.53485 | 16.29010 | 5968 ft | 228 kts | 345° |
| 2026-05-06 20:33 | 48.54976 | 16.28571 | 5997 ft | 208 kts | 345° |
| 2026-05-06 20:33 | 48.56366 | 16.28171 | 5977 ft | 205 kts | 345° |
| 2026-05-06 20:33 | 48.57778 | 16.27814 | 5973 ft | 207 kts | 352° |
| 2026-05-06 20:34 | 48.58732 | 16.27936 | 5973 ft | 212 kts | 14° |
| 2026-05-06 20:34 | 48.60232 | 16.29791 | 5976 ft | 214 kts | 62° |
| 2026-05-06 20:34 | 48.60886 | 16.31783 | 5961 ft | 214 kts | 65° |
| 2026-05-06 20:34 | 48.61324 | 16.33157 | 5865 ft | 211 kts | 65° |
| 2026-05-06 20:35 | 48.61951 | 16.35135 | 5472 ft | 209 kts | 65° |
| 2026-05-06 20:35 | 48.62363 | 16.37218 | 5085 ft | 208 kts | 94° |
| 2026-05-06 20:35 | 48.62135 | 16.39368 | 4995 ft | 209 kts | 105° |
| 2026-05-06 20:35 | 48.61791 | 16.41472 | 4974 ft | 207 kts | 117° |
| 2026-05-06 20:36 | 48.60873 | 16.43045 | 4978 ft | 196 kts | 156° |
| 2026-05-06 20:36 | 48.59587 | 16.43450 | 4982 ft | 189 kts | 184° |
| 2026-05-06 20:36 | 48.58278 | 16.43438 | 4975 ft | 188 kts | 185° |
| 2026-05-06 20:36 | 48.56974 | 16.43415 | 4976 ft | 187 kts | 185° |
| 2026-05-06 20:37 | 48.55668 | 16.43391 | 4974 ft | 189 kts | 185° |
| 2026-05-06 20:37 | 48.54350 | 16.43367 | 4974 ft | 189 kts | 185° |
| 2026-05-06 20:37 | 48.53034 | 16.43333 | 4977 ft | 189 kts | 185° |
| 2026-05-06 20:37 | 48.51723 | 16.43294 | 4975 ft | 189 kts | 185° |
| 2026-05-06 20:38 | 48.50441 | 16.43255 | 4974 ft | 179 kts | 185° |
| 2026-05-06 20:38 | 48.49257 | 16.43249 | 4981 ft | 164 kts | 185° |
| 2026-05-06 20:38 | 48.48108 | 16.43243 | 4978 ft | 168 kts | 185° |
| 2026-05-06 20:38 | 48.46939 | 16.43263 | 4978 ft | 169 kts | 181° |
| 2026-05-06 20:39 | 48.45774 | 16.43535 | 4977 ft | 170 kts | 172° |
| 2026-05-06 20:39 | 48.44618 | 16.43978 | 4986 ft | 173 kts | 169° |
| 2026-05-06 20:39 | 48.43464 | 16.44468 | 4987 ft | 172 kts | 169° |
| 2026-05-06 20:39 | 48.42231 | 16.44992 | 4987 ft | 173 kts | 169° |
| 2026-05-06 20:40 | 48.41160 | 16.45447 | 4987 ft | 171 kts | 169° |
| 2026-05-06 20:40 | 48.40001 | 16.45936 | 4989 ft | 173 kts | 169° |
| 2026-05-06 20:40 | 48.38859 | 16.46418 | 4994 ft | 174 kts | 169° |
| 2026-05-06 20:40 | 48.37700 | 16.46912 | 5001 ft | 173 kts | 169° |
| 2026-05-06 20:41 | 48.36548 | 16.47401 | 5000 ft | 173 kts | 169° |
| 2026-05-06 20:41 | 48.35382 | 16.47894 | 5004 ft | 174 kts | 169° |
| 2026-05-06 20:41 | 48.34218 | 16.48388 | 4971 ft | 174 kts | 169° |
| 2026-05-06 20:41 | 48.33056 | 16.48881 | 4832 ft | 173 kts | 170° |
| 2026-05-06 20:42 | 48.31917 | 16.49365 | 4610 ft | 170 kts | 170° |
| 2026-05-06 20:42 | 48.30783 | 16.49844 | 4386 ft | 168 kts | 171° |
| 2026-05-06 20:42 | 48.29672 | 16.50316 | 4179 ft | 165 kts | 171° |
| 2026-05-06 20:42 | 48.28573 | 16.50782 | 3965 ft | 163 kts | 171° |
| 2026-05-06 20:43 | 48.27488 | 16.51242 | 3751 ft | 161 kts | 171° |
| 2026-05-06 20:43 | 48.26427 | 16.51691 | 3548 ft | 160 kts | 171° |
| 2026-05-06 20:43 | 48.25346 | 16.52149 | 3339 ft | 158 kts | 171° |
| 2026-05-06 20:43 | 48.24460 | 16.52525 | 3163 ft | 156 kts | 171° |
| 2026-05-06 20:44 | 48.23433 | 16.52960 | 2964 ft | 154 kts | 171° |
| 2026-05-06 20:44 | 48.22415 | 16.53392 | 2777 ft | 152 kts | 171° |
| 2026-05-06 20:44 | 48.21461 | 16.53800 | 2563 ft | 137 kts | 171° |
| 2026-05-06 20:44 | 48.20619 | 16.54159 | 2408 ft | 122 kts | 172° |
| 2026-05-06 20:45 | 48.19836 | 16.54484 | 2257 ft | 122 kts | 171° |
| 2026-05-06 20:45 | 48.19017 | 16.54831 | 2097 ft | 122 kts | 171° |
| 2026-05-06 20:45 | 48.18223 | 16.55168 | 1930 ft | 121 kts | 170° |
| 2026-05-06 20:45 | 48.17451 | 16.55495 | 1783 ft | 121 kts | 169° |
| 2026-05-06 20:46 | 48.16723 | 16.55802 | 1649 ft | 118 kts | 169° |
| 2026-05-06 20:46 | 48.16044 | 16.56089 | 1506 ft | 118 kts | 168° |
| 2026-05-06 20:46 | 48.15536 | 16.56305 | 1399 ft | 112 kts | 166° |
| 2026-05-06 20:46 | 48.14922 | 16.56564 | 1275 ft | 121 kts | 165° |
| 2026-05-06 20:47 | 48.14135 | 16.56903 | 1102 ft | 120 kts | 164° |
| 2026-05-06 20:47 | 48.13353 | 16.57233 | 937 ft | 121 kts | 164° |
| 2026-05-06 20:47 | 48.12886 | 16.57433 | 836 ft | 120 kts | 164° |
| 2026-05-06 20:47 | 48.12121 | 16.57754 | 684 ft | 119 kts | 165° |
| 2026-05-06 20:48 | 48.11425 | 16.58047 | 618 ft | 67 kts | 164° |
| 2026-05-06 20:48 | 48.11096 | 16.58179 | 622 ft | 35 kts | 176° |
| 2026-05-06 20:48 | 48.10901 | 16.58262 | 611 ft | 20 kts | 175° |
| 2026-05-06 20:48 | 48.10766 | 16.58286 | 614 ft | 19 kts | 184° |
| 2026-05-06 20:49 | 48.10639 | 16.58259 | 610 ft | 18 kts | 191° |
| 2026-05-06 20:49 | 48.10552 | 16.58164 | 619 ft | 5 kts | 264° |
| 2026-05-06 20:49 | 48.10555 | 16.58157 | 619 ft | 2 kts | 292° |
| 2026-05-06 20:49 | 48.10571 | 16.58138 | 625 ft | 5 kts | 331° |
| 2026-05-06 20:50 | 48.10614 | 16.58117 | 620 ft | 8 kts | 349° |
| 2026-05-06 20:50 | 48.10682 | 16.58094 | 618 ft | 12 kts | 340° |
| 2026-05-06 20:50 | 48.10772 | 16.58050 | 622 ft | 15 kts | 345° |
| 2026-05-06 20:50 | 48.10885 | 16.58001 | 618 ft | 18 kts | 344° |
| 2026-05-06 20:51 | 48.10985 | 16.57956 | 615 ft | 12 kts | 346° |
| 2026-05-06 20:51 | 48.11076 | 16.57915 | 613 ft | 15 kts | 334° |
| 2026-05-06 20:51 | 48.11137 | 16.57784 | 613 ft | 16 kts | 291° |
| 2026-05-06 20:51 | 48.11185 | 16.57622 | 626 ft | 18 kts | 296° |
| 2026-05-06 20:52 | 48.11244 | 16.57457 | 624 ft | 16 kts | 289° |
| 2026-05-06 20:52 | 48.11272 | 16.57382 | 616 ft | 9 kts | 301° |
| 2026-05-06 20:52 | 48.11301 | 16.57281 | 615 ft | 13 kts | 291° |
| 2026-05-06 20:52 | 48.11343 | 16.57140 | 616 ft | 17 kts | 295° |
| 2026-05-06 20:53 | 48.11400 | 16.56971 | 625 ft | 20 kts | 297° |
| 2026-05-06 20:53 | 48.11455 | 16.56821 | 620 ft | 0 kts | 305° |
| 2026-05-06 20:53 | 48.11461 | 16.56808 | 622 ft | 4 kts | 305° |
| 2026-05-06 20:53 | 48.11481 | 16.56757 | 617 ft | 7 kts | 290° |
| 2026-05-06 20:54 | 48.11502 | 16.56662 | 616 ft | 12 kts | 289° |
| 2026-05-06 20:54 | 48.11540 | 16.56535 | 622 ft | 14 kts | 295° |
| 2026-05-06 20:54 | 48.11580 | 16.56414 | 621 ft | 15 kts | 296° |
| 2026-05-06 20:54 | 48.11626 | 16.56269 | 613 ft | 17 kts | 293° |
| 2026-05-06 20:55 | 48.11684 | 16.56098 | 624 ft | 19 kts | 297° |
| 2026-05-06 20:55 | 48.11731 | 16.55952 | 620 ft | 15 kts | 295° |
| 2026-05-06 20:55 | 48.11782 | 16.55791 | 616 ft | 19 kts | 295° |
| 2026-05-06 20:55 | 48.11844 | 16.55616 | 618 ft | 19 kts | 294° |
| 2026-05-06 20:56 | 48.11888 | 16.55437 | 610 ft | 9 kts | 290° |
| 2026-05-06 20:56 | 48.11893 | 16.55418 | 622 ft | 4 kts | 289° |
| 2026-05-06 20:56 | 48.11915 | 16.55360 | 615 ft | 9 kts | 301° |
| 2026-05-06 20:56 | 48.11944 | 16.55260 | 618 ft | 12 kts | 292° |
| 2026-05-06 20:57 | 48.11991 | 16.55186 | 622 ft | 0 kts | 358° |
| 2026-05-06 20:57 | 48.12004 | 16.55186 | 615 ft | 4 kts | 5° |
| 2026-05-06 20:57 | 48.12033 | 16.55192 | 610 ft | 0 kts | 4° |
| 2026-05-06 20:57 | 48.12062 | 16.55154 | 614 ft | 0 kts | 292° |
| 2026-05-06 20:58 | 48.12062 | 16.55138 | 624 ft | 0 kts | 264° |